Meteo Giornale » Osservazioni meteo Olanda » Amsterdam Schiphol

ore: 09:55 - Osservazioni Meteo Amsterdam Schiphol
Lat. 52° 18' N Lon. 4° 46' E Alt. -4 metri s.l.m.

coperto_pioggia Europe/Amsterdam

5 °C

Pioggia Debole

Temp. 24 Ore

0 °C

7 °C

Sud/Sud-Ovest

24 Km/h

Dew point 3 °C

Umidità 86 %

Visibilità  10 Km

Il sole sorge alle ore 07:32

Il sole tramonta alle ore 18:15

Data e Ora Cielo e Fenomeni T °C DP °C Um. % Pres. hPa Vis. km Vento km/h
Oggi h: 09:55 coperto_pioggia Pioggia Debole 5 3 86 1017 10 S/SO 24
Oggi h: 09:25 molto_nuvoloso Molto Nuvoloso 5 2 80 1017 10 S 24
Oggi h: 08:55 sereno Sereno 5 2 80 1017 10 S 25.9
Oggi h: 07:25 sereno Sereno 4 2 86 1017 10 S 16.7
Oggi h: 06:55 sereno Sereno 4 2 86 1017 10 S 18.5
Oggi h: 06:25 sereno Sereno 4 2 86 1018 10 S/SO 20.3
Oggi h: 05:55 sereno Sereno 3 1 86 1018 10 S 16.7
Oggi h: 05:25 sereno Sereno 3 1 86 1018 10 S/SO 16.7
Oggi h: 04:55 sereno Sereno 3 1 86 1018 10 S/SO 16.7
Oggi h: 04:25 sereno Sereno 3 1 86 1018 10 S/SO 16.7
Oggi h: 03:55 sereno Sereno 3 1 86 1018 10 S/SO 16.7
Oggi h: 03:25 sereno Sereno 2 1 93 1018 10 S/SO 16.7
Oggi h: 02:55 sereno Sereno 2 1 93 1019 10 S/SO 14.8
Oggi h: 02:25 sereno Sereno 1 1 100 1019 10 S/SO 13
Oggi h: 01:55 poco_nuvoloso Poco Nuvoloso 1 1 100 1019 10 S/SO 13
Oggi h: 01:25 poco_nuvoloso Poco Nuvoloso 1 1 100 1019 10 S/SO 13
Oggi h: 00:55 molto_nuvoloso Molto Nuvoloso 2 1 93 1019 10 S/SO 13
Oggi h: 00:25 nuvoloso Nuvoloso 1 0 93 1019 10 S 14.8
Ieri h: 23:25 poco_nuvoloso Poco Nuvoloso 0 -0 100 1019 10 S 7.4
Ieri h: 22:55 poco_nuvoloso Poco Nuvoloso 1 0 93 1019 10 SO 11.1
Ieri h: 22:25 poco_nuvoloso Poco Nuvoloso 2 1 93 1019 10 SO 13
Ieri h: 21:55 poco_nuvoloso Poco Nuvoloso 3 2 93 1019 10 SO 13
Ieri h: 21:25 poco_nuvoloso Poco Nuvoloso 3 2 93 1019 10 SO 11.1
Ieri h: 20:55 poco_nuvoloso Poco Nuvoloso 3 2 93 1019 10 O/SO 13
Ieri h: 20:25 poco_nuvoloso Poco Nuvoloso 3 1 86 1018 10 O/SO 9.3
Ieri h: 19:55 poco_nuvoloso Poco Nuvoloso 3 1 86 1018 10 O 9.3
Ieri h: 19:25 poco_nuvoloso Poco Nuvoloso 3 1 86 1018 10 O 9.3
Ieri h: 18:55 poco_nuvoloso Poco Nuvoloso 3 1 86 1018 10 O/NO 9.3
Ieri h: 18:25 poco_nuvoloso Poco Nuvoloso 4 2 86 1017 10 O/NO 13
Ieri h: 17:55 poco_nuvoloso Poco Nuvoloso 5 2 80 1017 10 O/NO 13
Ieri h: 17:25 poco_nuvoloso Poco Nuvoloso 5 2 80 1017 10 O/NO 16.7
Ieri h: 16:55 poco_nuvoloso Poco Nuvoloso 6 2 75 1016 10 O/NO 18.5
Ieri h: 16:25 poco_nuvoloso Poco Nuvoloso 7 1 65 1016 10 O/NO 22.2
Ieri h: 15:55 poco_nuvoloso Poco Nuvoloso 7 2 70 1015 10 O/NO 20.3
Ieri h: 15:25 poco_nuvoloso Poco Nuvoloso 7 1 65 1015 10 O/NO 22.2
Ieri h: 14:55 poco_nuvoloso Poco Nuvoloso 7 2 70 1015 10 O/NO 20.3
Ieri h: 14:25 poco_nuvoloso Poco Nuvoloso 7 1 65 1014 10 O/NO 22.2
Ieri h: 13:25 poco_nuvoloso Rovescio nelle Vicinanze 6 1 70 1014 10 O/NO 24
Ieri h: 12:55 poco_nuvoloso Rovescio nelle Vicinanze 7 2 70 1014 10 O/NO 22.2
Ieri h: 12:25 poco_nuvoloso Rovescio nelle Vicinanze 7 2 70 1013 10 O 22.2
Ieri h: 11:55 poco_nuvoloso Rovescio nelle Vicinanze 7 0 60 1013 10 O/NO 20.3
Ieri h: 11:25 poco_nuvoloso Poco Nuvoloso 7 1 65 1013 10 O/NO 18.5
Ieri h: 10:55 poco_nuvoloso Poco Nuvoloso 7 1 65 1012 10 O/NO 24
Ieri h: 10:25 poco_nuvoloso Poco Nuvoloso 7 1 65 1012 10 O/NO 22.2
Ieri h: 09:55 poco_nuvoloso Poco Nuvoloso 6 2 75 1011 10 O/NO 16.7